Hilldale, Tennessee
Current Conditions -  °F | °C
As of 6:52 PM on Wednesday 26 Nov 2014 (Local Time) from KCKV Reporting Station
Light Rain Light Rain  
Wind Chill:   Ceiling: 2100
Heat Index:   Visibility: 10mi
Dew Point:   Wind: 3mph
Humidity: 89%   Direction: 260°W
Pressure: 30.02"   Gusts: NA
Location:  36.4964°N, 87.234°W
Report Text: KCKV 270052Z AUTO 26003KT 10SM -RA FEW012 BKN021 OVC028 04/03 A3002 RMK AO2 SLP170 P0004 T00440028
Loading
Personal Weather Stations






























Interactive Weather Map New forecast layout! Learn more

10-Day Weather Forecast

Advertisements
Track Severe Weather on mobile